createdAt,value
2018-07-13T00:02:25.712Z,54.70
2018-07-13T00:04:54.098Z,55.20
2018-07-13T00:07:22.410Z,54.70
2018-07-13T00:09:51.019Z,54.60
2018-07-13T00:15:18.584Z,54.70
2018-07-13T00:17:46.951Z,54.70
2018-07-13T00:20:15.339Z,54.70
2018-07-13T00:22:43.664Z,54.70
2018-07-13T00:25:12.020Z,54.70
2018-07-13T00:27:40.367Z,54.70
2018-07-13T00:32:36.821Z,54.70
2018-07-13T00:35:05.167Z,54.60
2018-07-13T00:37:33.596Z,55.00
2018-07-13T00:40:02.783Z,54.60
2018-07-13T00:42:31.128Z,55.30
2018-07-13T00:44:59.623Z,54.60
2018-07-13T00:47:28.683Z,54.70
2018-07-13T00:49:57.032Z,54.70
2018-07-13T00:52:25.540Z,54.70
2018-07-13T00:54:53.974Z,54.70
2018-07-13T00:57:22.403Z,54.70
2018-07-13T00:59:50.768Z,54.70
2018-07-13T01:02:19.240Z,54.80
2018-07-13T01:04:47.575Z,54.70
2018-07-13T01:07:15.939Z,54.80
2018-07-13T01:09:44.291Z,54.60
2018-07-13T01:12:12.692Z,54.60
2018-07-13T01:14:41.104Z,54.60
2018-07-13T01:17:09.541Z,54.70
2018-07-13T01:19:37.947Z,54.70
2018-07-13T01:22:06.347Z,54.70
2018-07-13T01:24:34.700Z,55.00
2018-07-13T01:27:03.090Z,54.70
2018-07-13T01:29:32.499Z,54.80
2018-07-13T01:32:01.760Z,54.70
2018-07-13T01:34:30.144Z,54.80
2018-07-13T01:36:58.618Z,54.80
2018-07-13T01:39:26.991Z,54.80
2018-07-13T01:41:55.359Z,54.80
2018-07-13T01:44:23.707Z,54.80
2018-07-13T01:49:20.174Z,54.80
2018-07-13T01:51:48.675Z,54.80
2018-07-13T01:54:17.055Z,54.80
2018-07-13T01:56:45.458Z,54.80
2018-07-13T01:59:13.875Z,54.80
2018-07-13T02:01:42.231Z,54.90
2018-07-13T02:04:13.223Z,54.80
2018-07-13T02:06:41.678Z,54.90
2018-07-13T02:09:10.279Z,54.80
2018-07-13T02:11:38.716Z,54.90
2018-07-13T02:14:07.445Z,54.80
2018-07-13T02:19:04.331Z,54.80
2018-07-13T02:21:32.979Z,54.90
2018-07-13T02:24:01.364Z,54.80
2018-07-13T02:26:29.815Z,54.90
2018-07-13T02:28:58.267Z,54.80
2018-07-13T02:31:26.587Z,54.90
2018-07-13T02:33:55.015Z,54.90
2018-07-13T02:36:23.477Z,55.20
2018-07-13T02:38:51.929Z,54.80
2018-07-13T02:41:20.364Z,54.90
2018-07-13T02:43:48.887Z,54.80
2018-07-13T02:46:17.247Z,54.90
2018-07-13T02:48:45.597Z,54.80
2018-07-13T02:51:13.984Z,54.80
2018-07-13T02:53:42.835Z,54.80
2018-07-13T02:56:11.700Z,54.70
2018-07-13T02:58:40.040Z,54.80
2018-07-13T03:01:08.394Z,54.80
2018-07-13T03:03:36.738Z,54.70
2018-07-13T03:06:05.399Z,54.80
2018-07-13T03:08:33.764Z,54.80
2018-07-13T03:11:02.142Z,54.80
2018-07-13T03:13:31.262Z,54.80
2018-07-13T03:15:59.686Z,54.80
2018-07-13T03:18:28.100Z,54.80
2018-07-13T03:20:56.462Z,54.80
2018-07-13T03:23:24.879Z,54.80
2018-07-13T03:25:53.332Z,54.80
2018-07-13T03:28:21.689Z,54.80
2018-07-13T03:30:50.067Z,54.80
2018-07-13T03:33:18.864Z,54.80
2018-07-13T03:35:47.334Z,54.80
2018-07-13T03:38:16.029Z,54.80
2018-07-13T03:40:44.465Z,54.80
2018-07-13T03:43:12.806Z,54.90
2018-07-13T03:45:41.159Z,54.90
2018-07-13T03:48:09.583Z,54.80
2018-07-13T03:50:38.047Z,54.90
2018-07-13T03:53:06.484Z,54.90
2018-07-13T03:58:04.059Z,54.90
2018-07-13T04:00:33.662Z,54.90
2018-07-13T04:03:02.043Z,54.90
2018-07-13T04:05:30.469Z,54.90
2018-07-13T04:07:58.819Z,54.90
2018-07-13T04:10:27.204Z,54.90
2018-07-13T04:12:55.623Z,54.90
2018-07-13T04:15:24.105Z,55.00
2018-07-13T04:17:52.443Z,55.60
2018-07-13T04:20:20.862Z,55.00
2018-07-13T04:22:49.618Z,55.00
2018-07-13T04:25:17.995Z,55.00
2018-07-13T04:27:47.265Z,55.00
2018-07-13T04:30:15.706Z,55.00
2018-07-13T04:32:44.148Z,55.00
2018-07-13T04:35:12.501Z,55.00
2018-07-13T04:37:40.945Z,55.00
2018-07-13T04:40:09.323Z,55.10
2018-07-13T04:42:37.766Z,55.00
2018-07-13T04:45:06.238Z,55.10
2018-07-13T04:47:34.594Z,55.10
2018-07-13T04:50:03.112Z,55.10
2018-07-13T04:52:32.934Z,55.10
2018-07-13T04:55:01.353Z,55.10
2018-07-13T04:57:29.836Z,55.20
2018-07-13T04:59:58.200Z,55.20
2018-07-13T05:02:26.955Z,55.10
2018-07-13T05:04:55.451Z,55.20
2018-07-13T05:07:23.933Z,55.20
2018-07-13T05:09:52.587Z,55.20
2018-07-13T05:12:21.229Z,55.10
2018-07-13T05:14:49.633Z,55.10
2018-07-13T05:17:17.993Z,55.20
2018-07-13T05:19:46.437Z,55.20
2018-07-13T05:22:14.928Z,55.20
2018-07-13T05:24:43.287Z,55.20
2018-07-13T05:27:11.712Z,55.20
2018-07-13T05:29:40.101Z,55.20
2018-07-13T05:32:08.530Z,55.30
2018-07-13T05:34:36.955Z,55.20
2018-07-13T05:37:05.409Z,55.20
2018-07-13T05:39:33.878Z,55.20
2018-07-13T05:42:02.321Z,55.20
2018-07-13T05:44:30.726Z,55.20
2018-07-13T05:46:59.131Z,55.10
2018-07-13T05:49:27.607Z,55.10
2018-07-13T05:51:56.395Z,55.00
2018-07-13T05:54:24.803Z,55.00
2018-07-13T05:56:53.152Z,55.00
2018-07-13T05:59:21.725Z,55.00
2018-07-13T06:01:50.333Z,55.00
2018-07-13T06:04:18.766Z,55.10
2018-07-13T06:06:47.467Z,55.30
2018-07-13T06:09:15.890Z,55.30
2018-07-13T06:11:44.703Z,55.60
2018-07-13T06:14:13.404Z,55.70
2018-07-13T06:16:41.849Z,55.80
2018-07-13T06:19:10.184Z,56.00
2018-07-13T06:21:38.523Z,56.40
2018-07-13T06:24:07.396Z,56.40
2018-07-13T06:26:35.990Z,56.50
2018-07-13T06:29:04.543Z,56.10
2018-07-13T06:31:33.022Z,55.60
2018-07-13T06:34:01.721Z,55.30
2018-07-13T06:36:30.349Z,55.60
2018-07-13T06:38:58.709Z,55.60
2018-07-13T06:41:27.175Z,55.40
2018-07-13T06:43:56.559Z,55.50
2018-07-13T06:46:24.915Z,55.50
2018-07-13T06:48:53.324Z,55.30
2018-07-13T06:51:21.720Z,55.30
2018-07-13T06:53:50.309Z,55.10
2018-07-13T06:56:18.707Z,55.10
2018-07-13T06:58:58.533Z,55.00
2018-07-13T07:01:26.928Z,54.90
2018-07-13T07:04:31.456Z,54.90
2018-07-13T07:07:01.616Z,55.50
2018-07-13T07:09:30.965Z,54.90
2018-07-13T07:13:13.535Z,54.90
2018-07-13T07:15:42.709Z,54.80
2018-07-13T07:18:11.086Z,54.80
2018-07-13T07:20:39.442Z,54.80
2018-07-13T07:23:07.787Z,54.70
2018-07-13T07:25:36.244Z,54.60
2018-07-13T07:28:04.724Z,54.50
2018-07-13T07:30:33.396Z,54.40
2018-07-13T07:33:01.836Z,54.50
2018-07-13T07:35:30.268Z,54.50
2018-07-13T07:42:54.799Z,54.30
2018-07-13T07:45:23.155Z,54.30
2018-07-13T07:47:51.576Z,54.20
2018-07-13T07:50:19.995Z,54.10
2018-07-13T07:52:49.403Z,54.00
2018-07-13T07:55:17.869Z,53.90
2018-07-13T07:57:46.235Z,53.90
2018-07-13T08:00:15.578Z,53.90
2018-07-13T08:02:43.984Z,53.80
2018-07-13T08:05:12.493Z,54.40
2018-07-13T08:07:41.166Z,53.70
2018-07-13T08:10:09.455Z,53.70
2018-07-13T08:12:37.803Z,53.70
2018-07-13T08:15:06.431Z,53.60
2018-07-13T08:17:34.763Z,53.60
2018-07-13T08:20:03.135Z,53.60
2018-07-13T08:22:40.247Z,53.60
2018-07-13T08:25:11.883Z,54.00
2018-07-13T08:27:43.682Z,53.40
2018-07-13T08:30:16.298Z,53.50
2018-07-13T08:32:44.909Z,53.30
2018-07-13T08:35:13.399Z,53.40
2018-07-13T08:37:43.770Z,53.20
2018-07-13T08:40:12.290Z,53.20
2018-07-13T08:45:11.514Z,53.20
2018-07-13T08:47:40.010Z,53.00
2018-07-13T08:50:08.657Z,52.80
2018-07-13T08:52:38.073Z,52.80
2018-07-13T08:55:10.380Z,52.90
2018-07-13T08:57:39.455Z,53.00
2018-07-13T09:00:08.394Z,53.10
2018-07-13T09:02:38.118Z,52.90
2018-07-13T09:05:06.932Z,53.10
2018-07-13T09:07:45.345Z,53.60
2018-07-13T09:10:14.456Z,53.10
2018-07-13T09:12:43.756Z,53.00
2018-07-13T09:15:13.400Z,53.00
2018-07-13T09:17:41.928Z,53.10
2018-07-13T09:20:16.964Z,53.00
2018-07-13T09:22:45.506Z,53.00
2018-07-13T09:25:14.370Z,53.10
2018-07-13T09:27:43.131Z,53.20
2018-07-13T09:30:12.486Z,53.20
2018-07-13T09:32:41.460Z,53.20
2018-07-13T09:35:10.236Z,53.20
2018-07-13T09:37:38.959Z,53.00
2018-07-13T09:40:07.426Z,53.00
2018-07-13T09:42:36.316Z,53.10
2018-07-13T09:45:04.662Z,53.00
2018-07-13T09:47:33.407Z,53.10
2018-07-13T09:50:01.831Z,53.00
2018-07-13T09:52:30.372Z,53.00
2018-07-13T09:54:59.063Z,53.10
2018-07-13T09:57:27.439Z,53.00
2018-07-13T09:59:56.138Z,53.00
2018-07-13T10:02:24.508Z,52.40
2018-07-13T10:04:52.858Z,52.70
2018-07-13T10:07:21.203Z,52.70
2018-07-13T10:09:49.828Z,52.70
2018-07-13T10:12:18.307Z,52.70
2018-07-13T10:14:46.759Z,52.70
2018-07-13T10:17:15.458Z,52.80
2018-07-13T10:19:43.923Z,52.60
2018-07-13T10:22:15.805Z,52.50
2018-07-13T10:24:44.518Z,52.30
2018-07-13T10:27:14.649Z,52.00
2018-07-13T10:29:46.526Z,51.00
2018-07-13T10:32:14.915Z,51.40
2018-07-13T10:37:11.871Z,51.60
2018-07-13T10:39:40.336Z,51.40
2018-07-13T10:42:08.735Z,51.60
2018-07-13T10:44:37.191Z,51.60
2018-07-13T10:49:33.803Z,52.00
2018-07-13T10:52:03.041Z,52.00
2018-07-13T10:54:32.781Z,52.70
2018-07-13T10:57:01.780Z,52.60
2018-07-13T10:59:30.062Z,52.60
2018-07-13T11:01:58.531Z,53.30
2018-07-13T11:04:26.936Z,52.80
2018-07-13T11:06:55.403Z,52.70
2018-07-13T11:09:23.829Z,52.70
2018-07-13T11:11:52.197Z,52.50
2018-07-13T11:14:20.681Z,52.40
2018-07-13T11:16:49.067Z,52.20
2018-07-13T11:19:17.431Z,52.00
2018-07-13T11:21:45.942Z,51.80
2018-07-13T11:24:14.309Z,51.80
2018-07-13T11:26:42.710Z,51.90
2018-07-13T11:29:11.132Z,52.50
2018-07-13T11:31:40.131Z,51.80
2018-07-13T11:34:08.599Z,51.80
2018-07-13T11:36:37.026Z,51.70
2018-07-13T11:39:07.144Z,51.70
2018-07-13T11:41:35.512Z,51.80
2018-07-13T11:44:04.000Z,51.80
2018-07-13T11:46:32.647Z,51.50
2018-07-13T11:49:01.104Z,51.50
2018-07-13T11:51:29.543Z,51.50
2018-07-13T11:53:57.887Z,51.50
2018-07-13T11:56:26.383Z,51.30
2018-07-13T11:58:54.923Z,51.40
2018-07-13T12:01:23.379Z,51.20
2018-07-13T12:03:51.721Z,51.40
2018-07-13T12:06:20.088Z,51.20
2018-07-13T12:08:49.275Z,51.20
2018-07-13T12:11:17.622Z,51.60
2018-07-13T12:13:46.822Z,51.10
2018-07-13T12:16:15.159Z,51.10
2018-07-13T12:18:43.507Z,51.30
2018-07-13T12:21:12.133Z,51.30
2018-07-13T12:23:40.618Z,51.40
2018-07-13T12:26:08.989Z,51.50
2018-07-13T12:28:37.658Z,51.50
2018-07-13T12:31:06.172Z,51.60
2018-07-13T12:33:34.555Z,51.60
2018-07-13T12:36:02.915Z,51.70
2018-07-13T12:38:31.282Z,51.70
2018-07-13T12:40:59.708Z,51.70
2018-07-13T12:43:28.124Z,51.70
2018-07-13T12:45:56.623Z,51.80
2018-07-13T12:48:24.959Z,51.80
2018-07-13T12:50:53.937Z,51.90
2018-07-13T12:53:22.337Z,52.00
2018-07-13T12:55:50.796Z,52.00
2018-07-13T12:58:19.201Z,52.00
2018-07-13T13:03:15.715Z,52.00
2018-07-13T13:05:44.392Z,52.00
2018-07-13T13:08:12.726Z,52.10
2018-07-13T13:10:41.250Z,52.10
2018-07-13T13:13:09.619Z,52.70
2018-07-13T13:15:38.050Z,52.10
2018-07-13T13:18:06.397Z,52.20
2018-07-13T13:20:34.771Z,52.00
2018-07-13T13:23:03.829Z,51.80
2018-07-13T13:25:32.255Z,51.60
2018-07-13T13:28:00.652Z,51.50
2018-07-13T13:30:29.043Z,51.50
2018-07-13T13:35:25.541Z,51.40
2018-07-13T13:37:53.999Z,51.20
2018-07-13T13:40:22.377Z,50.90
2018-07-13T13:42:50.740Z,50.60
2018-07-13T13:45:19.133Z,50.80
2018-07-13T13:47:47.645Z,50.60
2018-07-13T13:50:15.971Z,50.70
2018-07-13T13:52:44.376Z,50.60
2018-07-13T13:55:12.792Z,50.80
2018-07-13T13:57:41.251Z,50.80
2018-07-13T14:00:09.611Z,50.80
2018-07-13T14:02:38.053Z,50.80
2018-07-13T14:05:06.847Z,50.80
2018-07-13T14:07:35.324Z,50.80
2018-07-13T14:10:03.702Z,51.50
2018-07-13T14:12:32.050Z,51.00
2018-07-13T14:15:00.480Z,51.10
2018-07-13T14:17:28.909Z,51.20
2018-07-13T14:19:57.271Z,51.10
2018-07-13T14:22:25.820Z,51.20
2018-07-13T14:24:54.343Z,51.20
2018-07-13T14:27:22.675Z,50.70
2018-07-13T14:29:51.404Z,51.00
2018-07-13T14:32:19.759Z,51.10
2018-07-13T14:34:48.199Z,51.20
2018-07-13T14:37:16.647Z,51.10
2018-07-13T14:39:45.002Z,51.10
2018-07-13T14:42:13.480Z,51.20
2018-07-13T14:44:41.907Z,51.20
2018-07-13T14:47:10.382Z,51.30
2018-07-13T14:49:38.624Z,51.10
2018-07-13T14:52:07.091Z,51.20
2018-07-13T14:54:35.447Z,51.30
2018-07-13T14:57:04.027Z,51.30
2018-07-13T14:59:32.429Z,51.30
2018-07-13T15:02:00.795Z,51.30
2018-07-13T15:04:29.151Z,51.10
2018-07-13T15:06:57.707Z,51.20
2018-07-13T15:09:26.117Z,51.20
2018-07-13T15:11:54.465Z,51.10
2018-07-13T15:14:23.250Z,51.20
2018-07-13T15:16:51.604Z,51.00
2018-07-13T15:19:19.979Z,51.10
2018-07-13T15:21:48.547Z,51.00
2018-07-13T15:24:17.135Z,51.00
2018-07-13T15:26:45.623Z,51.00
2018-07-13T15:29:14.072Z,51.10
2018-07-13T15:31:42.581Z,51.00
2018-07-13T15:34:11.019Z,50.90
2018-07-13T15:36:39.388Z,50.80
2018-07-13T15:39:08.051Z,50.90
2018-07-13T15:41:36.421Z,50.90
2018-07-13T15:44:04.819Z,51.00
2018-07-13T15:46:33.168Z,51.10
2018-07-13T15:49:01.704Z,51.10
2018-07-13T15:51:30.097Z,51.10
2018-07-13T15:53:58.451Z,50.80
2018-07-13T15:56:26.883Z,50.60
2018-07-13T16:01:23.484Z,50.90
2018-07-13T16:03:51.851Z,50.80
2018-07-13T16:06:20.953Z,50.70
2018-07-13T16:08:49.312Z,50.60
2018-07-13T16:11:17.767Z,50.80
2018-07-13T16:13:47.175Z,50.80
2018-07-13T16:16:15.688Z,51.00
2018-07-13T16:18:44.023Z,50.80
2018-07-13T16:21:12.650Z,50.70
2018-07-13T16:23:41.405Z,50.90
2018-07-13T16:26:09.724Z,50.80
2018-07-13T16:28:38.183Z,50.60
2018-07-13T16:31:06.831Z,50.90
2018-07-13T16:33:35.193Z,50.90
2018-07-13T16:36:03.606Z,51.00
2018-07-13T16:38:32.103Z,51.00
2018-07-13T16:41:00.548Z,51.10
2018-07-13T16:43:28.923Z,51.20
2018-07-13T16:45:57.959Z,51.20
2018-07-13T16:48:26.312Z,51.20
2018-07-13T16:50:54.677Z,51.30
2018-07-13T16:53:23.011Z,51.30
2018-07-13T16:55:51.374Z,51.30
2018-07-13T16:58:19.761Z,51.30
2018-07-13T17:00:48.108Z,51.40
2018-07-13T17:03:16.547Z,51.40
2018-07-13T17:05:44.866Z,51.00
2018-07-13T17:08:13.283Z,51.50
2018-07-13T17:10:41.799Z,51.50
2018-07-13T17:13:10.159Z,51.50
2018-07-13T17:15:38.488Z,51.50
2018-07-13T17:18:06.983Z,51.50
2018-07-13T17:23:03.631Z,51.50
2018-07-13T17:25:32.916Z,51.50
2018-07-13T17:28:01.351Z,51.40
2018-07-13T17:30:29.715Z,51.50
2018-07-13T17:32:58.053Z,51.40
2018-07-13T17:35:26.442Z,51.40
2018-07-13T17:37:54.927Z,51.20
2018-07-13T17:40:23.379Z,51.40
2018-07-13T17:42:52.007Z,51.40
2018-07-13T17:45:20.540Z,51.40
2018-07-13T17:50:17.494Z,51.50
2018-07-13T17:52:45.878Z,51.40
2018-07-13T17:55:14.300Z,51.30
2018-07-13T18:00:10.839Z,51.40
2018-07-13T18:02:39.171Z,51.40
2018-07-13T18:05:07.538Z,51.50
2018-07-13T18:07:35.979Z,51.50
2018-07-13T18:10:04.454Z,51.40
2018-07-13T18:12:33.013Z,51.50
2018-07-13T18:15:01.289Z,51.50
2018-07-13T18:17:29.611Z,51.50
2018-07-13T18:19:57.963Z,51.50
2018-07-13T18:22:26.312Z,52.20
2018-07-13T18:24:54.643Z,51.70
2018-07-13T18:27:23.023Z,51.60
2018-07-13T18:34:47.751Z,51.60
2018-07-13T18:37:16.175Z,51.70
2018-07-13T18:39:44.616Z,51.70
2018-07-13T18:42:13.151Z,51.60
2018-07-13T18:44:41.484Z,51.70
2018-07-13T18:47:10.127Z,51.70
2018-07-13T18:49:38.819Z,51.70
2018-07-13T18:52:07.166Z,51.80
2018-07-13T18:54:35.705Z,51.80
2018-07-13T18:59:32.373Z,51.90
2018-07-13T19:02:00.722Z,51.90
2018-07-13T19:04:36.183Z,51.80
2018-07-13T19:07:06.229Z,51.80
2018-07-13T19:09:34.604Z,52.00
2018-07-13T19:14:31.107Z,52.00
2018-07-13T19:17:00.304Z,52.00
2018-07-13T19:19:28.787Z,52.10
2018-07-13T19:21:57.332Z,52.10
2018-07-13T19:24:26.732Z,52.20
2018-07-13T19:26:55.548Z,52.40
2018-07-13T19:29:24.003Z,52.40
2018-07-13T19:31:52.404Z,52.60
2018-07-13T19:34:20.763Z,52.70
2018-07-13T19:36:49.109Z,52.70
2018-07-13T19:39:18.287Z,52.70
2018-07-13T19:41:46.863Z,52.70
2018-07-13T19:44:15.162Z,52.80
2018-07-13T19:49:11.904Z,52.80
2018-07-13T19:51:40.304Z,52.60
2018-07-13T19:54:08.705Z,52.70
2018-07-13T19:56:37.325Z,52.70
2018-07-13T19:59:05.678Z,52.70
2018-07-13T20:01:34.064Z,52.60
2018-07-13T20:04:02.595Z,52.60
2018-07-13T20:08:59.419Z,52.80
2018-07-13T20:11:27.777Z,52.70
2018-07-13T20:13:56.133Z,52.80
2018-07-13T20:16:24.660Z,52.80
2018-07-13T20:18:53.017Z,52.80
2018-07-13T20:21:21.343Z,52.90
2018-07-13T20:23:49.924Z,52.90
2018-07-13T20:26:18.340Z,52.90
2018-07-13T20:28:46.861Z,52.90
2018-07-13T20:31:15.318Z,52.90
2018-07-13T20:33:43.720Z,52.90
2018-07-13T20:36:12.076Z,52.90
2018-07-13T20:38:40.455Z,52.90
2018-07-13T20:41:08.833Z,52.90
2018-07-13T20:43:37.168Z,52.80
2018-07-13T20:48:33.693Z,52.90
2018-07-13T20:51:02.092Z,52.90
2018-07-13T20:53:30.803Z,52.90
2018-07-13T20:56:00.524Z,52.80
2018-07-13T20:58:28.991Z,52.80
2018-07-13T21:00:58.009Z,52.80
2018-07-13T21:03:26.367Z,52.80
2018-07-13T21:05:54.759Z,52.70
2018-07-13T21:08:23.136Z,52.50
2018-07-13T21:10:51.608Z,52.50
2018-07-13T21:13:20.062Z,52.60
2018-07-13T21:15:48.477Z,52.60
2018-07-13T21:18:16.856Z,52.50
2018-07-13T21:23:13.466Z,52.40
2018-07-13T21:25:41.811Z,52.30
2018-07-13T21:28:10.189Z,52.40
2018-07-13T21:30:39.506Z,52.30
2018-07-13T21:33:07.847Z,52.30
2018-07-13T21:35:36.195Z,52.30
2018-07-13T21:40:33.101Z,52.30
2018-07-13T21:43:02.340Z,52.20
2018-07-13T21:45:30.779Z,52.10
2018-07-13T21:47:59.202Z,52.10
2018-07-13T21:50:27.559Z,52.10
2018-07-13T21:52:56.651Z,52.20
2018-07-13T21:55:25.024Z,52.10
2018-07-13T21:57:53.380Z,52.00
2018-07-13T22:00:21.734Z,52.10
2018-07-13T22:02:51.507Z,52.10
2018-07-13T22:05:19.965Z,52.10
2018-07-13T22:07:48.336Z,52.10
2018-07-13T22:10:16.736Z,52.00
2018-07-13T22:12:45.103Z,52.00
2018-07-13T22:15:13.447Z,52.00
2018-07-13T22:17:41.903Z,52.00
2018-07-13T22:20:10.286Z,51.90
2018-07-13T22:22:38.646Z,51.90
2018-07-13T22:25:07.111Z,51.90
2018-07-13T22:27:35.518Z,51.90
2018-07-13T22:30:03.948Z,51.90
2018-07-13T22:32:32.487Z,51.80
2018-07-13T22:35:01.020Z,51.90
2018-07-13T22:37:29.455Z,51.80
2018-07-13T22:39:57.866Z,52.40
2018-07-13T22:42:26.423Z,51.90
2018-07-13T22:44:54.763Z,52.50
2018-07-13T22:47:23.119Z,51.80
2018-07-13T22:49:52.444Z,51.70
2018-07-13T22:52:20.857Z,51.70
2018-07-13T22:54:49.320Z,51.70
2018-07-13T22:57:17.688Z,51.70
2018-07-13T22:59:46.149Z,51.70
2018-07-13T23:02:14.468Z,51.70
2018-07-13T23:04:42.829Z,51.70
2018-07-13T23:07:11.165Z,51.70
2018-07-13T23:09:39.554Z,51.60
2018-07-13T23:12:07.908Z,51.60
2018-07-13T23:14:36.261Z,51.60
2018-07-13T23:17:04.720Z,51.60
2018-07-13T23:19:33.071Z,51.60
2018-07-13T23:22:01.417Z,51.60
2018-07-13T23:24:29.770Z,51.70
2018-07-13T23:26:58.155Z,51.70
2018-07-13T23:29:26.497Z,51.80
2018-07-13T23:31:54.872Z,51.80
2018-07-13T23:34:23.327Z,51.70
2018-07-13T23:36:51.673Z,51.80
2018-07-13T23:39:20.676Z,51.80
2018-07-13T23:41:49.017Z,51.80
2018-07-13T23:44:17.476Z,51.80
2018-07-13T23:46:45.860Z,51.80
2018-07-13T23:49:14.192Z,51.80
2018-07-13T23:51:42.569Z,51.80
2018-07-13T23:54:10.948Z,51.80
2018-07-13T23:56:39.394Z,51.80
2018-07-13T23:59:07.754Z,51.80
